SCTN

Chaitén Airfield

Airport
ICAO code
SCTN
IATA Code
WCH
Summary
ICAO Region
CARSAM
ICAO Territory
Location

Chaiten, Los Lagos

Serving
Chaiten
Elevation
13 ft
Coordinates
42° 55' 58" S , 72° 41' 57" W
KCC
Cfb
Metar
Observation
SCTN 131600Z 33022G37KT 290V360 5000 2000N RA SCT009 OVC013 09/09 Q0999
Station
CHAITEN
Date/Time
2022-08-13 16:00:00
Wind direction
330°
Wind speed
22 kts
Lowest cloud amount
scattered clouds
Temperature
9°C
Dew point
9°C
Humidity
100%
QNH
999 hPa
Weather condition
n/a

Airport located near Chaitén, Los Lagos, Chile.

Climatology

Temperate oceanic climate (Köppen climate classification Cfb)

Runways

Designator Length Width Surface Rops
13/31 1423 20 ASP No/No

Airport map

Aerial View

SKYbrary Partners:

Safety knowledge contributed by: